Time;durP1;ratioP1;P1;durP2;ratioP2;P2;SDS_P1;SDS_P2;PMS_P1;PMS_P2;Temp;Humidity;BMP_temperature;BMP_pressure;BME280_temperature;BME280_humidity;BME280_pressure;Samples;Min_cycle;Max_cycle;Signal;HPM_P1;HPM_P2
2020/12/20 00:02:45;;;;;;;4.32;3.92;;;12.20;99.90;;;;;;6073004;23;20323;-85
2020/12/20 00:06:48;;;;;;;;;;;;;;;;;;;;;
2020/12/20 00:15:04;;;;;;;;;;;;;;;;;;;;;
2020/12/20 00:36:16;;;;;;;;;;;;;;;;;;;;;
2020/12/20 00:40:07;;;;;;;5.28;3.85;;;12.30;99.90;;;;;;6029374;23;20438;-85
2020/12/20 00:52:43;;;;;;;5.10;3.85;;;12.40;99.90;;;;;;6004050;23;20165;-85
2020/12/20 01:00:54;;;;;;;5.57;3.63;;;12.40;99.90;;;;;;5804544;24;20155;-85
2020/12/20 01:04:24;;;;;;;4.78;4.13;;;12.40;99.90;;;;;;5805813;24;20649;-85
2020/12/20 01:11:54;;;;;;;5.22;4.32;;;12.20;99.90;;;;;;6019398;23;20248;-85
2020/12/20 01:15:54;;;;;;;7.25;4.43;;;12.30;99.90;;;;;;6087302;23;20198;-86
2020/12/20 01:22:43;;;;;;;4.10;3.55;;;12.30;99.90;;;;;;6015764;23;20199;-86
2020/12/20 01:34:54;;;;;;;;;;;;;;;;;;;;;
2020/12/20 01:38:37;;;;;;;5.07;3.90;;;12.30;99.90;;;;;;6077327;23;20156;-86
2020/12/20 01:42:31;;;;;;;6.38;4.13;;;12.20;99.90;;;;;;6013112;23;20466;-86
2020/12/20 01:46:01;;;;;;;4.82;4.10;;;12.30;99.90;;;;;;6146623;23;20244;-86
2020/12/20 01:50:06;;;;;;;3.80;3.33;;;12.30;99.90;;;;;;6038257;23;20185;-86
2020/12/20 01:53:28;;;;;;;5.20;3.20;;;12.30;99.90;;;;;;6031366;23;20160;-86
2020/12/20 01:56:55;;;;;;;6.97;4.00;;;12.30;99.90;;;;;;6187001;23;20150;-86
2020/12/20 02:00:24;;;;;;;6.40;4.20;;;12.30;99.90;;;;;;6188133;23;20157;-85
2020/12/20 02:03:46;;;;;;;5.05;2.90;;;12.30;99.90;;;;;;6188192;23;20154;-86
2020/12/20 02:07:11;;;;;;;3.75;3.38;;;12.40;99.90;;;;;;6067242;23;20160;-86
2020/12/20 02:13:29;;;;;;;4.18;3.50;;;12.40;99.90;;;;;;6065523;23;20167;-86
2020/12/20 02:16:45;;;;;;;3.95;3.60;;;12.40;99.90;;;;;;6129305;23;20489;-86
2020/12/20 02:28:21;;;;;;;3.80;3.47;;;12.40;99.90;;;;;;6066289;23;20669;-82
2020/12/20 02:31:48;;;;;;;3.90;3.50;;;12.40;99.90;;;;;;6008827;23;20530;-83
2020/12/20 02:35:17;;;;;;;4.00;3.55;;;12.40;99.90;;;;;;6042933;23;20156;-83
2020/12/20 02:38:23;;;;;;;3.55;3.00;;;12.40;99.90;;;;;;6011769;23;20149;-85
2020/12/20 02:42:05;;;;;;;5.85;3.90;;;12.40;99.90;;;;;;6066818;23;20238;-85
2020/12/20 02:45:52;;;;;;;;;;;;;;;;;;;;;
2020/12/20 02:57:40;;;;;;;5.35;3.60;;;12.30;99.90;;;;;;6151172;23;20173;-83
2020/12/20 03:01:10;;;;;;;8.35;4.50;;;12.30;99.90;;;;;;6183094;23;20219;-83
2020/12/20 03:04:08;;;;;;;5.43;3.95;;;12.30;99.90;;;;;;6097490;23;20157;-83
2020/12/20 03:07:42;;;;;;;5.85;3.85;;;12.30;99.90;;;;;;6156669;23;20142;-84
2020/12/20 03:11:15;;;;;;;4.40;3.90;;;12.30;99.90;;;;;;6161231;23;20145;-84
2020/12/20 03:13:59;;;;;;;4.88;4.10;;;12.30;99.90;;;;;;6128570;23;20285;-84
2020/12/20 03:17:10;;;;;;;;;;;;;;;;;;;;;
2020/12/20 03:24:17;;;;;;;4.53;3.65;;;12.20;99.90;;;;;;6143643;23;20166;-86
2020/12/20 03:36:02;;;;;;;4.45;3.33;;;12.20;99.90;;;;;;6006684;23;20153;-84
2020/12/20 03:39:20;;;;;;;5.35;4.43;;;12.20;99.90;;;;;;6034515;23;20173;-83
2020/12/20 03:42:53;;;;;;;;;;;;;;;;;;;;;
2020/12/20 03:50:02;;;;;;;4.05;3.65;;;12.20;99.90;;;;;;6083766;23;20208;-84
2020/12/20 03:53:35;;;;;;;5.30;3.80;;;12.20;99.90;;;;;;6064631;23;20152;-86
2020/12/20 03:56:15;;;;;;;5.22;4.13;;;12.20;99.90;;;;;;6090166;23;20466;-84
2020/12/20 04:00:39;;;;;;;4.78;4.32;;;12.10;99.90;;;;;;6136994;23;20237;-85
2020/12/20 04:04:35;;;;;;;4.40;3.15;;;12.10;99.90;;;;;;6062516;23;20290;-85
2020/12/20 04:07:18;;;;;;;3.40;3.10;;;12.00;99.90;;;;;;6059956;23;20522;-86
2020/12/20 04:10:01;;;;;;;4.32;3.92;;;12.10;99.90;;;;;;6165901;23;20292;-86
2020/12/20 04:12:54;;;;;;;4.40;4.03;;;12.10;99.90;;;;;;6157931;23;20152;-85
2020/12/20 04:16:23;;;;;;;5.63;4.00;;;12.10;99.90;;;;;;6149978;23;20466;-85
2020/12/20 04:19:53;;;;;;;4.85;4.45;;;12.10;99.90;;;;;;6139584;23;20234;-86
2020/12/20 04:22:53;;;;;;;6.35;3.90;;;12.10;99.90;;;;;;6167764;23;20190;-85
2020/12/20 04:25:38;;;;;;;4.60;4.05;;;12.10;99.90;;;;;;6156911;23;20164;-86
2020/12/20 04:29:03;;;;;;;4.38;3.90;;;12.10;99.90;;;;;;6153646;23;20749;-86
2020/12/20 04:31:48;;;;;;;3.33;3.03;;;12.10;99.90;;;;;;6134964;23;20142;-85
2020/12/20 04:34:53;;;;;;;;;;;;;;;;;;;;;
2020/12/20 04:38:09;;;;;;;4.40;4.07;;;12.00;99.90;;;;;;6142264;23;20548;-86
2020/12/20 04:41:25;;;;;;;5.25;4.30;;;12.10;99.90;;;;;;6182176;23;20150;-86
2020/12/20 04:44:29;;;;;;;4.55;4.15;;;12.00;99.90;;;;;;6157818;23;20488;-86
2020/12/20 04:48:14;;;;;;;3.95;3.55;;;12.10;99.90;;;;;;6162691;23;20182;-86
2020/12/20 04:51:43;;;;;;;5.05;4.20;;;12.10;99.90;;;;;;6183518;23;20134;-86
2020/12/20 04:54:38;;;;;;;4.72;3.75;;;12.10;99.90;;;;;;6175514;23;20157;-86
2020/12/20 05:01:24;;;;;;;6.78;4.25;;;12.10;99.90;;;;;;6160137;23;20130;-86
2020/12/20 05:04:59;;;;;;;;;;;;;;;;;;;;;
2020/12/20 05:11:59;;;;;;;5.32;4.00;;;12.10;99.90;;;;;;6133149;23;20600;-84
2020/12/20 05:19:04;;;;;;;;;;;;;;;;;;;;;
2020/12/20 05:22:15;;;;;;;4.00;3.47;;;12.10;99.90;;;;;;6172340;23;20174;-85
2020/12/20 05:25:55;;;;;;;3.70;3.40;;;12.10;99.90;;;;;;6183363;23;20146;-85
2020/12/20 05:32:56;;;;;;;;;;;;;;;;;;;;;
2020/12/20 05:36:45;;;;;;;5.45;4.63;;;12.00;99.90;;;;;;6037514;23;20163;-85
2020/12/20 05:44:59;;;;;;;3.60;3.30;;;12.00;99.90;;;;;;6062317;23;20160;-85
2020/12/20 05:47:41;;;;;;;4.35;3.53;;;12.00;99.90;;;;;;6025009;23;20463;-85
2020/12/20 05:51:06;;;;;;;4.90;3.40;;;12.00;99.90;;;;;;6014615;23;20211;-86
2020/12/20 05:58:41;;;;;;;3.88;3.47;;;12.00;99.90;;;;;;5906246;23;20640;-85
2020/12/20 06:10:36;;;;;;;;;;;;;;;;;;;;;
2020/12/20 06:18:16;;;;;;;4.78;4.25;;;11.90;99.90;;;;;;6133103;23;20196;-85
2020/12/20 06:21:03;;;;;;;5.38;4.05;;;11.90;99.90;;;;;;6183722;23;20224;-85
2020/12/20 06:24:46;;;;;;;;;;;;;;;;;;;;;
2020/12/20 06:32:02;;;;;;;5.78;5.03;;;11.90;99.90;;;;;;6057550;23;20220;-85
2020/12/20 06:39:33;;;;;;;5.65;5.15;;;11.90;99.90;;;;;;6166835;23;20184;-85
2020/12/20 06:43:12;;;;;;;6.82;4.85;;;11.90;99.90;;;;;;6154808;23;20181;-85
2020/12/20 06:56:18;;;;;;;4.63;4.13;;;11.80;99.90;;;;;;6128509;23;20204;-85
2020/12/20 06:59:38;;;;;;;;;;;;;;;;;;;;;
2020/12/20 07:06:47;;;;;;;6.03;4.70;;;11.80;99.90;;;;;;6136659;23;20165;-85
2020/12/20 07:09:58;;;;;;;6.13;4.57;;;11.70;99.90;;;;;;6184684;23;20695;-84
2020/12/20 07:13:22;;;;;;;6.18;5.57;;;11.70;99.90;;;;;;6146432;23;20181;-85
2020/12/20 07:16:38;;;;;;;5.68;5.18;;;11.70;99.90;;;;;;6184627;23;20517;-85
2020/12/20 07:20:19;;;;;;;6.10;5.50;;;11.70;99.90;;;;;;6103962;23;20227;-85
2020/12/20 07:28:19;;;;;;;;;;;;;;;;;;;;;
2020/12/20 07:35:12;;;;;;;7.00;6.05;;;11.50;99.90;;;;;;6080049;23;20155;-85
2020/12/20 07:38:07;;;;;;;6.57;5.90;;;11.50;99.90;;;;;;6112619;23;20136;-83
2020/12/20 07:41:10;;;;;;;6.07;5.28;;;11.50;99.90;;;;;;6189946;23;20150;-85
2020/12/20 07:44:19;;;;;;;7.85;5.57;;;11.50;99.90;;;;;;6193924;23;20137;-86
2020/12/20 07:47:38;;;;;;;6.53;5.88;;;11.50;99.90;;;;;;6069997;23;20149;-84
2020/12/20 07:51:07;;;;;;;6.30;5.13;;;11.40;99.90;;;;;;6163111;23;20184;-84
2020/12/20 07:57:30;;;;;;;7.72;6.53;;;11.40;99.90;;;;;;6186084;23;20270;-85
2020/12/20 08:00:33;;;;;;;6.30;5.65;;;11.40;99.90;;;;;;6167302;23;20166;-85
2020/12/20 08:03:19;;;;;;;5.75;5.15;;;11.40;99.90;;;;;;6155227;23;20201;-84
2020/12/20 08:06:33;;;;;;;7.72;6.95;;;11.40;99.90;;;;;;6184136;23;20453;-84
2020/12/20 08:09:33;;;;;;;7.55;6.78;;;11.40;99.90;;;;;;6180125;23;20730;-84
2020/12/20 08:12:48;;;;;;;5.60;5.10;;;11.40;99.90;;;;;;6129754;23;20831;-84
2020/12/20 08:16:58;;;;;;;;;;;;;;;;;;;;;
2020/12/20 08:19:43;;;;;;;7.05;5.70;;;11.40;99.90;;;;;;6142218;23;20173;-83
2020/12/20 08:23:16;;;;;;;;;;;;;;;;;;;;;
2020/12/20 08:26:37;;;;;;;6.63;6.00;;;11.40;99.90;;;;;;6164152;23;20168;-83
2020/12/20 08:30:22;;;;;;;6.15;5.55;;;11.50;99.90;;;;;;6163151;23;20266;-84
2020/12/20 08:34:16;;;;;;;6.65;5.00;;;11.50;99.90;;;;;;6144995;23;20164;-84
2020/12/20 08:37:41;;;;;;;7.72;7.03;;;11.60;99.90;;;;;;6199069;23;20152;-84
2020/12/20 08:41:01;;;;;;;5.35;4.95;;;11.50;99.90;;;;;;6052004;23;20167;-85
2020/12/20 08:43:27;;;;;;;6.85;6.22;;;11.60;99.90;;;;;;6070000;23;20148;-85
2020/12/20 08:45:57;;;;;;;9.85;6.50;;;11.60;99.90;;;;;;6163081;23;20581;-85
2020/12/20 08:48:36;;;;;;;7.50;6.38;;;11.60;99.90;;;;;;6187513;23;20822;-84
2020/12/20 08:51:02;;;;;;;5.82;5.32;;;11.70;99.90;;;;;;6160726;23;20126;-85
2020/12/20 08:53:28;;;;;;;7.05;5.85;;;11.70;99.90;;;;;;6159722;23;20587;-84
2020/12/20 08:55:54;;;;;;;7.00;6.30;;;11.70;99.90;;;;;;6185247;23;20149;-84
2020/12/20 08:58:20;;;;;;;8.30;7.50;;;11.80;99.90;;;;;;6187109;23;20162;-85
2020/12/20 09:01:02;;;;;;;7.60;7.00;;;11.80;99.90;;;;;;6165200;23;20166;-84
2020/12/20 09:03:31;;;;;;;7.43;6.35;;;11.80;99.90;;;;;;6196095;23;20172;-83
2020/12/20 09:06:12;;;;;;;7.20;6.50;;;11.90;99.90;;;;;;6193611;23;20192;-83
2020/12/20 09:09:30;;;;;;;;;;;;;;;;;;;;;
2020/12/20 09:12:26;;;;;;;6.32;5.70;;;11.90;99.90;;;;;;6187690;23;20157;-85
2020/12/20 09:15:09;;;;;;;6.55;5.90;;;12.00;99.90;;;;;;6187684;23;20145;-84
2020/12/20 09:17:45;;;;;;;6.70;6.10;;;12.00;99.90;;;;;;6189144;23;20133;-84
2020/12/20 09:20:57;;;;;;;6.07;5.53;;;12.10;99.90;;;;;;6135431;23;20532;-84
2020/12/20 09:24:25;;;;;;;6.20;5.60;;;12.10;99.90;;;;;;6175181;23;20145;-84
2020/12/20 09:27:00;;;;;;;6.60;6.10;;;12.20;99.90;;;;;;6197312;23;20180;-84
2020/12/20 09:30:04;;;;;;;5.43;4.93;;;12.30;99.90;;;;;;6194662;23;20220;-83
2020/12/20 09:32:41;;;;;;;8.02;7.18;;;12.30;99.90;;;;;;6184813;23;20130;-84
2020/12/20 09:35:21;;;;;;;7.03;6.32;;;12.40;99.90;;;;;;6188066;23;20662;-84
2020/12/20 09:38:18;;;;;;;;;;;;;;;;;;;;;
2020/12/20 09:41:28;;;;;;;9.18;8.07;;;12.40;99.90;;;;;;6149451;23;20187;-84
2020/12/20 09:44:25;;;;;;;7.65;6.95;;;12.40;99.90;;;;;;6187793;23;20134;-86
2020/12/20 09:47:21;;;;;;;9.98;7.97;;;12.40;99.90;;;;;;6182205;23;20153;-86
2020/12/20 09:50:37;;;;;;;8.85;7.93;;;12.40;99.90;;;;;;6166297;23;20505;-84
2020/12/20 09:53:57;;;;;;;8.45;7.10;;;12.50;99.90;;;;;;6044248;23;20152;-84
2020/12/20 09:56:43;;;;;;;6.53;5.13;;;12.50;99.90;;;;;;6163263;23;20138;-83
2020/12/20 09:59:14;;;;;;;7.25;6.22;;;12.50;99.90;;;;;;6183848;23;20171;-84
2020/12/20 10:01:43;;;;;;;8.32;6.65;;;12.50;99.90;;;;;;6168986;23;20502;-84
2020/12/20 10:04:11;;;;;;;8.30;6.20;;;12.50;99.90;;;;;;6160754;23;20561;-85
2020/12/20 10:06:37;;;;;;;7.95;7.20;;;12.60;99.90;;;;;;6159011;23;20588;-81
2020/12/20 10:09:06;;;;;;;8.47;7.67;;;12.60;99.90;;;;;;6156732;23;20245;-79
2020/12/20 10:11:37;;;;;;;6.95;6.32;;;12.60;99.90;;;;;;6183666;23;20497;-78
2020/12/20 10:14:08;;;;;;;7.72;7.10;;;12.60;99.90;;;;;;6183177;23;20209;-80
2020/12/20 10:31:21;;;;;;;8.38;6.25;;;13.00;99.90;;;;;;6179475;23;20201;-76
2020/12/20 10:33:47;;;;;;;5.97;5.18;;;13.00;99.90;;;;;;6182745;23;20142;-76
2020/12/20 10:36:13;;;;;;;6.43;5.80;;;13.00;99.90;;;;;;6182756;23;20665;-76
2020/12/20 10:38:39;;;;;;;6.88;6.25;;;13.10;99.90;;;;;;6180385;23;20561;-76
2020/12/20 10:41:05;;;;;;;6.83;6.00;;;13.20;99.90;;;;;;6154667;23;20200;-76
2020/12/20 10:43:31;;;;;;;6.57;5.90;;;13.20;99.90;;;;;;6181634;23;20533;-76
2020/12/20 10:45:57;;;;;;;7.60;5.57;;;13.20;99.90;;;;;;6156489;23;20529;-76
2020/12/20 10:48:22;;;;;;;6.03;5.17;;;13.30;99.90;;;;;;6182818;23;20188;-76
2020/12/20 10:50:48;;;;;;;7.67;6.63;;;13.30;99.90;;;;;;6155983;23;20193;-76
2020/12/20 10:53:14;;;;;;;7.27;5.80;;;13.30;99.90;;;;;;6182558;23;20146;-76
2020/12/20 10:55:40;;;;;;;6.30;5.70;;;13.40;99.90;;;;;;6182718;23;20157;-77
2020/12/20 10:58:06;;;;;;;6.22;5.68;;;13.40;99.90;;;;;;6181474;23;20204;-76
2020/12/20 11:00:32;;;;;;;8.10;6.40;;;13.50;99.90;;;;;;6155735;23;20158;-78
2020/12/20 11:02:58;;;;;;;6.27;5.57;;;13.50;99.90;;;;;;6156170;23;20603;-78
2020/12/20 11:05:25;;;;;;;6.87;5.73;;;13.50;99.90;;;;;;6156127;23;20173;-77
2020/12/20 11:07:51;;;;;;;7.33;6.63;;;13.60;99.90;;;;;;6155773;23;20910;-76
2020/12/20 11:10:18;;;;;;;6.37;5.70;;;13.60;99.90;;;;;;6155630;23;20642;-75
2020/12/20 11:12:44;;;;;;;5.70;5.03;;;13.60;99.90;;;;;;6182453;23;20141;-75
2020/12/20 11:15:10;;;;;;;6.23;5.63;;;13.60;99.90;;;;;;6182499;23;20564;-76
2020/12/20 11:17:36;;;;;;;6.27;5.77;;;13.60;99.90;;;;;;6182500;23;20145;-76
2020/12/20 11:20:02;;;;;;;6.87;5.10;;;13.60;99.90;;;;;;6182533;23;20174;-76
2020/12/20 11:22:28;;;;;;;5.97;5.43;;;13.70;99.90;;;;;;6182630;23;20648;-76
2020/12/20 11:24:54;;;;;;;5.20;4.70;;;13.80;99.90;;;;;;6184052;23;21137;-76
2020/12/20 11:27:20;;;;;;;6.87;6.20;;;13.90;99.90;;;;;;6182051;23;20145;-75
2020/12/20 11:29:45;;;;;;;7.67;5.87;;;13.90;99.90;;;;;;6181880;23;20170;-76
2020/12/20 11:32:11;;;;;;;7.30;5.20;;;13.90;99.90;;;;;;6155822;23;20496;-75
2020/12/20 11:34:37;;;;;;;6.07;5.00;;;13.90;99.90;;;;;;6155952;23;20145;-76
2020/12/20 11:37:03;;;;;;;9.10;5.33;;;13.90;99.90;;;;;;6155587;23;20154;-75
2020/12/20 11:39:28;;;;;;;6.90;4.73;;;14.00;99.90;;;;;;6130249;23;20996;-75
2020/12/20 11:41:54;;;;;;;5.90;4.47;;;13.90;99.90;;;;;;6181740;23;20655;-75
2020/12/20 11:44:21;;;;;;;5.50;5.00;;;14.00;99.90;;;;;;6182123;23;20529;-75
2020/12/20 11:46:46;;;;;;;7.47;6.78;;;13.90;99.90;;;;;;6130965;23;20727;-75
2020/12/20 11:49:12;;;;;;;5.13;4.67;;;13.90;99.90;;;;;;6181170;23;20166;-77
2020/12/20 11:51:38;;;;;;;6.27;5.67;;;14.00;99.90;;;;;;6181917;23;20169;-76
2020/12/20 11:54:04;;;;;;;6.87;5.73;;;14.00;99.90;;;;;;6155604;23;20153;-76
2020/12/20 11:56:30;;;;;;;6.70;5.60;;;13.90;99.90;;;;;;6181854;23;20556;-79
2020/12/20 11:58:56;;;;;;;7.50;5.50;;;13.90;99.90;;;;;;6154517;23;20169;-80
2020/12/20 12:01:30;;;;;;;5.20;4.70;;;13.90;99.90;;;;;;6186201;23;20628;-81
2020/12/20 12:03:56;;;;;;;6.90;4.63;;;13.90;99.90;;;;;;6155459;23;20489;-77
2020/12/20 12:06:22;;;;;;;5.00;4.50;;;14.00;99.90;;;;;;6155498;23;20537;-77
2020/12/20 12:08:48;;;;;;;6.27;5.50;;;14.00;99.90;;;;;;6154988;23;21149;-79
2020/12/20 12:11:20;;;;;;;7.97;6.30;;;14.00;99.90;;;;;;6181565;23;20150;-77
2020/12/20 12:13:47;;;;;;;5.57;4.57;;;14.00;99.90;;;;;;6181896;23;20893;-77
2020/12/20 12:16:18;;;;;;;7.37;5.70;;;14.10;99.90;;;;;;6181777;23;20153;-77
2020/12/20 12:18:44;;;;;;;6.67;6.07;;;14.10;99.90;;;;;;6181299;23;20557;-77
2020/12/20 12:21:12;;;;;;;6.23;5.20;;;14.20;99.90;;;;;;6129700;23;20881;-78
2020/12/20 12:23:38;;;;;;;7.90;5.35;;;14.20;99.90;;;;;;6154391;23;20855;-77
2020/12/20 12:26:04;;;;;;;6.50;4.67;;;14.30;99.90;;;;;;6181901;23;20141;-76
2020/12/20 12:28:30;;;;;;;4.53;4.13;;;14.30;99.90;;;;;;6181243;23;20180;-76
2020/12/20 12:30:56;;;;;;;7.50;6.13;;;14.30;99.90;;;;;;6154165;23;20596;-76
2020/12/20 12:33:22;;;;;;;5.47;4.57;;;14.30;99.90;;;;;;6181890;23;20525;-76
2020/12/20 12:35:48;;;;;;;10.63;5.23;;;14.30;99.90;;;;;;6155456;23;20157;-76
2020/12/20 12:38:14;;;;;;;5.13;4.63;;;14.30;99.90;;;;;;6130748;23;20176;-77
2020/12/20 12:40:40;;;;;;;5.33;4.63;;;14.30;99.90;;;;;;6183960;23;20181;-76
2020/12/20 12:43:05;;;;;;;7.80;4.80;;;14.30;99.90;;;;;;6181482;23;21082;-77
2020/12/20 12:45:31;;;;;;;5.23;3.90;;;14.40;99.90;;;;;;6181446;23;20253;-76
2020/12/20 12:47:57;;;;;;;5.37;4.30;;;14.40;99.90;;;;;;6154561;23;20142;-77
2020/12/20 12:50:22;;;;;;;5.40;4.03;;;14.40;99.90;;;;;;6154645;23;20164;-77
2020/12/20 12:52:48;;;;;;;5.97;4.60;;;14.50;99.90;;;;;;6154839;23;20146;-77
2020/12/20 12:55:14;;;;;;;6.43;4.33;;;14.50;99.90;;;;;;6181555;23;20252;-77
2020/12/20 12:57:40;;;;;;;5.33;3.17;;;14.50;99.90;;;;;;6181058;23;20580;-81
2020/12/20 13:00:05;;;;;;;5.13;3.50;;;14.40;99.90;;;;;;6181302;23;20712;-77
2020/12/20 13:02:33;;;;;;;4.00;3.27;;;14.40;99.90;;;;;;6181266;23;20212;-77
2020/12/20 13:05:00;;;;;;;4.40;3.17;;;14.40;99.90;;;;;;6155466;23;20153;-77
2020/12/20 13:07:28;;;;;;;7.10;3.67;;;14.40;99.90;;;;;;6154386;23;20533;-77
2020/12/20 13:09:54;;;;;;;4.00;3.10;;;14.40;99.90;;;;;;6181312;23;20557;-77
2020/12/20 13:12:20;;;;;;;6.43;3.67;;;14.40;99.90;;;;;;6181356;23;20540;-77
2020/12/20 13:14:46;;;;;;;5.07;4.57;;;14.30;99.90;;;;;;6182104;23;20521;-78
2020/12/20 13:17:12;;;;;;;4.10;3.07;;;14.40;99.90;;;;;;6184143;23;20514;-78
2020/12/20 13:19:37;;;;;;;6.83;3.83;;;14.30;99.90;;;;;;6181055;23;20170;-78
2020/12/20 13:22:03;;;;;;;5.20;3.50;;;14.30;99.90;;;;;;6180487;23;20589;-77
2020/12/20 13:24:29;;;;;;;11.27;4.10;;;14.30;99.90;;;;;;6130519;23;20146;-78
2020/12/20 13:26:55;;;;;;;6.63;3.97;;;14.30;99.90;;;;;;6154511;23;20146;-78
2020/12/20 13:29:21;;;;;;;5.93;4.27;;;14.30;99.90;;;;;;6154339;23;20573;-78
2020/12/20 13:31:46;;;;;;;6.43;3.80;;;14.30;99.90;;;;;;6180708;23;21287;-79
2020/12/20 13:34:12;;;;;;;8.20;3.80;;;14.30;99.90;;;;;;6181569;23;20145;-77
2020/12/20 13:36:39;;;;;;;6.87;3.23;;;14.30;99.90;;;;;;6181062;23;20585;-78
2020/12/20 13:39:05;;;;;;;6.63;3.60;;;14.30;99.90;;;;;;6180622;23;20166;-78
2020/12/20 13:41:30;;;;;;;6.60;3.70;;;14.30;99.90;;;;;;6154525;23;20632;-78
2020/12/20 13:43:56;;;;;;;5.20;3.33;;;14.20;99.90;;;;;;6181098;23;20541;-78
2020/12/20 13:46:23;;;;;;;4.17;3.20;;;14.20;99.90;;;;;;6181344;23;20222;-77
2020/12/20 13:48:48;;;;;;;4.20;3.30;;;14.30;99.90;;;;;;6180535;23;20557;-78
2020/12/20 13:51:14;;;;;;;5.07;3.10;;;14.30;99.90;;;;;;6180944;23;20528;-78
2020/12/20 13:53:41;;;;;;;6.93;3.20;;;14.30;99.90;;;;;;6156372;23;20553;-77
2020/12/20 13:56:07;;;;;;;6.53;3.60;;;14.20;99.90;;;;;;6181242;23;20216;-78
2020/12/20 13:58:33;;;;;;;6.63;3.60;;;14.30;99.90;;;;;;6180232;23;20576;-77
2020/12/20 14:01:01;;;;;;;5.20;3.20;;;14.30;99.90;;;;;;6180776;23;20517;-77
2020/12/20 14:03:28;;;;;;;6.07;3.00;;;14.30;99.90;;;;;;6154218;23;21208;-77
2020/12/20 14:05:53;;;;;;;6.97;3.30;;;14.30;99.90;;;;;;6154362;23;21110;-77
2020/12/20 14:08:19;;;;;;;4.27;2.53;;;14.30;99.90;;;;;;6153785;23;20567;-78
2020/12/20 14:10:45;;;;;;;5.00;3.50;;;14.30;99.90;;;;;;6179766;23;20142;-79
2020/12/20 14:13:11;;;;;;;4.03;2.43;;;14.40;99.90;;;;;;6178287;23;20521;-78
2020/12/20 14:15:37;;;;;;;4.97;3.07;;;14.40;99.90;;;;;;6178863;23;20521;-78
2020/12/20 14:18:03;;;;;;;5.67;2.80;;;14.40;99.90;;;;;;6178036;23;20917;-79
2020/12/20 14:20:29;;;;;;;5.93;2.72;;;14.30;99.90;;;;;;6178826;23;20492;-78
2020/12/20 14:22:54;;;;;;;2.93;1.97;;;14.30;99.90;;;;;;6180228;23;20173;-78
2020/12/20 14:25:20;;;;;;;3.90;1.97;;;14.30;99.90;;;;;;6181001;23;20511;-78
2020/12/20 14:27:46;;;;;;;5.67;2.17;;;14.30;99.90;;;;;;6156358;23;20662;-79
2020/12/20 14:30:12;;;;;;;4.90;1.43;;;14.30;99.90;;;;;;6187626;23;20208;-78
2020/12/20 14:32:38;;;;;;;4.83;1.50;;;14.20;99.90;;;;;;6131637;23;20541;-81
2020/12/20 14:35:05;;;;;;;2.50;2.03;;;14.20;99.90;;;;;;6182179;23;20269;-77
2020/12/20 14:37:35;;;;;;;2.27;1.23;;;14.20;99.90;;;;;;6181897;23;20518;-78
2020/12/20 14:40:02;;;;;;;3.10;1.43;;;14.20;99.90;;;;;;6131387;23;20584;-80
2020/12/20 15:27:13;;;;;;;4.05;0.90;;;13.60;99.90;;;;;;6188567;23;20186;-79
2020/12/20 15:29:39;;;;;;;2.83;1.37;;;13.50;99.90;;;;;;6130502;23;20166;-80
2020/12/20 15:32:04;;;;;;;4.07;1.10;;;13.40;99.90;;;;;;6181144;23;20197;-81
2020/12/20 15:34:33;;;;;;;6.07;1.57;;;13.40;99.90;;;;;;6154910;23;20165;-79
2020/12/20 15:37:00;;;;;;;4.20;1.10;;;13.30;99.90;;;;;;6155321;23;20588;-80
2020/12/20 15:39:29;;;;;;;3.90;2.08;;;13.30;99.90;;;;;;6154356;23;20166;-80
2020/12/20 15:41:54;;;;;;;2.53;1.10;;;13.30;99.90;;;;;;6155357;23;20620;-80
2020/12/20 15:44:20;;;;;;;2.97;1.43;;;13.20;99.90;;;;;;6159583;23;20169;-79
2020/12/20 15:46:46;;;;;;;6.60;1.57;;;13.20;99.90;;;;;;6181670;23;20142;-79
2020/12/20 15:49:12;;;;;;;3.60;1.60;;;13.20;99.90;;;;;;6181020;23;20549;-78
2020/12/20 15:51:38;;;;;;;4.43;0.90;;;13.10;99.90;;;;;;6155477;23;20160;-79
2020/12/20 15:54:03;;;;;;;3.87;1.40;;;13.10;99.90;;;;;;6155480;23;20192;-80
2020/12/20 15:56:29;;;;;;;4.00;1.10;;;13.10;99.90;;;;;;6155537;23;20529;-80
2020/12/20 15:58:56;;;;;;;2.90;1.40;;;13.00;99.90;;;;;;6181028;23;20219;-80
2020/12/20 16:01:25;;;;;;;3.45;1.20;;;13.00;99.90;;;;;;6180966;23;20628;-81
2020/12/20 16:03:51;;;;;;;2.53;1.00;;;13.00;99.90;;;;;;6154998;23;20153;-80
2020/12/20 16:06:17;;;;;;;3.50;0.90;;;13.00;99.90;;;;;;6155536;23;20577;-79
2020/12/20 16:08:43;;;;;;;2.00;1.10;;;13.00;99.90;;;;;;6154439;23;20600;-80
2020/12/20 16:11:09;;;;;;;5.63;1.30;;;13.00;99.90;;;;;;6154758;23;20180;-79
2020/12/20 16:13:35;;;;;;;3.90;1.20;;;12.90;99.90;;;;;;6182189;23;20587;-79
2020/12/20 16:16:01;;;;;;;8.83;1.17;;;13.00;99.90;;;;;;6143854;23;20614;-80
2020/12/20 16:18:27;;;;;;;5.13;1.20;;;12.90;99.90;;;;;;6122062;23;20492;-80
2020/12/20 16:20:54;;;;;;;5.17;1.40;;;12.90;99.90;;;;;;6123497;23;20150;-77
2020/12/20 16:23:25;;;;;;;3.80;1.30;;;12.90;99.90;;;;;;6124967;23;20543;-77
2020/12/20 16:25:51;;;;;;;5.40;1.70;;;12.90;99.90;;;;;;6115909;23;20195;-77
2020/12/20 16:28:17;;;;;;;7.65;1.30;;;12.90;99.90;;;;;;6091141;23;20543;-77
2020/12/20 16:30:43;;;;;;;4.30;1.43;;;12.90;99.90;;;;;;6093274;23;20144;-76
2020/12/20 16:33:09;;;;;;;3.80;1.30;;;12.90;99.90;;;;;;6093615;23;20152;-77
2020/12/20 16:35:35;;;;;;;5.13;1.17;;;12.90;99.90;;;;;;6093377;23;20144;-76
2020/12/20 16:38:01;;;;;;;3.38;1.75;;;12.90;99.90;;;;;;6091635;23;20200;-76
2020/12/20 16:40:27;;;;;;;3.90;1.77;;;12.90;99.90;;;;;;6093073;23;20194;-76
2020/12/20 16:42:53;;;;;;;4.13;1.30;;;12.90;99.90;;;;;;6067657;23;20500;-76
2020/12/20 16:45:19;;;;;;;2.67;1.03;;;12.90;99.90;;;;;;6090879;23;20544;-76
2020/12/20 16:47:45;;;;;;;2.40;1.40;;;12.90;99.90;;;;;;6090810;23;20560;-76
2020/12/20 16:50:11;;;;;;;4.80;2.00;;;12.90;99.90;;;;;;6092596;23;20155;-76
2020/12/20 16:52:36;;;;;;;3.27;1.50;;;13.00;99.90;;;;;;6091891;23;20147;-76
2020/12/20 16:55:03;;;;;;;4.70;1.47;;;13.00;99.90;;;;;;6091903;23;20572;-76
2020/12/20 16:57:29;;;;;;;5.57;1.40;;;13.00;99.90;;;;;;6091320;23;20175;-76
2020/12/20 16:59:54;;;;;;;3.10;1.30;;;13.00;99.90;;;;;;6093168;23;20154;-76
2020/12/20 17:02:20;;;;;;;3.73;1.50;;;13.00;99.90;;;;;;6092992;23;20654;-76
2020/12/20 17:04:46;;;;;;;5.13;1.50;;;13.00;99.90;;;;;;6091967;23;20184;-76
2020/12/20 17:07:13;;;;;;;5.13;2.20;;;13.00;99.90;;;;;;6067581;23;20171;-76
2020/12/20 17:09:41;;;;;;;3.53;1.55;;;13.00;99.90;;;;;;6091918;23;20847;-75
2020/12/20 17:12:08;;;;;;;3.55;1.60;;;13.00;99.90;;;;;;6093103;23;20155;-75
2020/12/20 17:14:35;;;;;;;2.63;1.42;;;13.00;99.90;;;;;;6091277;23;20152;-75
2020/12/20 17:17:00;;;;;;;4.18;1.63;;;13.00;99.90;;;;;;6110649;23;20659;-75
2020/12/20 17:19:28;;;;;;;4.13;1.30;;;13.10;99.90;;;;;;6094924;23;20154;-75
2020/12/20 17:21:53;;;;;;;4.20;1.20;;;13.10;99.90;;;;;;6121423;23;20174;-75
2020/12/20 17:24:19;;;;;;;6.43;1.37;;;13.00;99.90;;;;;;6122044;23;20491;-76
2020/12/20 17:26:45;;;;;;;3.97;1.50;;;13.10;99.90;;;;;;6074645;23;20575;-76
2020/12/20 17:29:11;;;;;;;3.65;1.60;;;13.10;99.90;;;;;;6120965;23;20519;-77
2020/12/20 17:31:37;;;;;;;4.40;1.57;;;13.10;99.90;;;;;;6096643;23;20154;-77
2020/12/20 17:34:05;;;;;;;2.17;1.33;;;13.10;99.90;;;;;;6122093;23;20539;-76
2020/12/20 17:36:30;;;;;;;3.75;1.75;;;13.10;99.90;;;;;;6121592;23;20574;-77
2020/12/20 17:38:56;;;;;;;7.47;2.28;;;13.00;99.90;;;;;;6121290;23;20155;-76
2020/12/20 17:41:25;;;;;;;5.07;2.10;;;13.00;99.90;;;;;;6121466;23;20182;-77
2020/12/20 17:43:52;;;;;;;3.85;2.00;;;12.90;99.90;;;;;;6120307;23;20151;-76
2020/12/20 17:46:18;;;;;;;3.53;1.90;;;12.90;99.90;;;;;;6096003;23;20240;-76
2020/12/20 17:48:44;;;;;;;4.18;1.45;;;12.90;99.90;;;;;;6071415;23;20155;-76
2020/12/20 17:51:10;;;;;;;5.38;1.75;;;12.90;99.90;;;;;;6121624;23;20138;-77
2020/12/20 17:53:36;;;;;;;5.28;1.73;;;12.90;99.90;;;;;;6121381;23;20472;-76
2020/12/20 17:56:03;;;;;;;5.43;1.40;;;12.90;99.90;;;;;;6121651;23;20175;-76
2020/12/20 17:58:28;;;;;;;8.60;1.83;;;12.90;99.90;;;;;;6097353;23;20218;-77
2020/12/20 18:00:54;;;;;;;2.90;1.50;;;12.80;99.90;;;;;;6122019;23;20626;-77
2020/12/20 18:03:20;;;;;;;10.57;2.17;;;12.90;99.90;;;;;;6095739;23;20205;-77
2020/12/20 18:05:46;;;;;;;5.32;1.73;;;12.80;99.90;;;;;;6123003;23;20237;-77
2020/12/20 18:08:12;;;;;;;3.67;1.80;;;12.80;99.90;;;;;;6096759;23;20151;-77
2020/12/20 18:10:38;;;;;;;4.30;1.67;;;12.80;99.90;;;;;;6123605;23;21049;-77
2020/12/20 18:13:03;;;;;;;3.90;1.50;;;12.70;99.90;;;;;;6099573;23;20526;-77
2020/12/20 18:15:29;;;;;;;5.33;1.97;;;12.70;99.90;;;;;;6098125;23;20186;-77
2020/12/20 18:17:55;;;;;;;3.17;1.53;;;12.70;99.90;;;;;;6123573;23;20171;-77
2020/12/20 18:20:21;;;;;;;3.07;1.70;;;12.70;99.90;;;;;;6123783;23;20222;-77
2020/12/20 18:22:47;;;;;;;2.90;1.57;;;12.60;99.90;;;;;;6098243;23;20598;-76
2020/12/20 18:25:14;;;;;;;6.22;1.70;;;12.60;99.90;;;;;;6124278;23;20523;-77
2020/12/20 18:27:40;;;;;;;3.45;1.65;;;12.50;99.90;;;;;;6123505;23;20163;-76
2020/12/20 18:30:07;;;;;;;3.00;1.70;;;12.50;99.90;;;;;;6124029;23;20154;-76